Favola — IBFH — position and weather

sailwx.info

Track history (hours):
 
Tides and Currents Weather Stations Pressure Air Temp Water Temp Dewpoint Dewpoint Depression Visibility Wind Speed Wind Dir Waves Ship Positions

Favola

Last reported at 2016-Sep-25 07:34 UTC. Time now 2016-Sep-25 14:04 UTC.
Position N 39°14' W 009°55'.

Length 180 m; draft 7.2 m.

Type: Ship (hazmat cat D). MMSI: 247069800.

Date/timePositionNaut miles runAvg speedWind from/ knotsBaromVisibWave heightAir tempDewpointWater temp
2016-Sep-25 07:34N 39°14' W 009°55'3411.5
2016-Sep-25 04:34N 38°40' W 009°55'4611.4
2016-Sep-25 00:30N 37°55' W 009°41'2311.6
2016-Sep-24 22:29N 37°32' W 009°34'1512.1
2016-Sep-24 21:13N 37°17' W 009°31'1911.6
2016-Sep-24 19:33N 36°58' W 009°25'3311.0
2016-Sep-24 16:33N 36°36' W 008°55'27511.0
2016-Sep-23 15:33N 36°18' W 003°14'2211.2
2016-Sep-23 13:33N 36°22' W 002°46'36 9.0
2016-Sep-23 09:33N 36°32' W 002°03'3310.9
2016-Sep-23 06:32N 36°54' W 001°32'2110.2
2016-Sep-23 04:26N 37°08' W 001°12'9 9.6
2016-Sep-23 03:31N 37°13' W 001°04'9 9.6
2016-Sep-23 02:33N 37°19' W 000°55'10 9.9
2016-Sep-23 01:33N 37°26' W 000°45'10 9.6
2016-Sep-23 00:31N 37°33' W 000°36'9 9.5
2016-Sep-22 23:33N 37°40' W 000°29'187 9.8
2016-Sep-22 04:33N 40°12' E 001°50'1010.2
2016-Sep-22 03:33N 40°21' E 001°58'3110.5
2016-Sep-22 00:34N 40°46' E 002°22'1010.1
2016-Sep-21 23:33N 40°54' E 002°30'1010.1
2016-Sep-21 22:33N 41°01' E 002°40'  
2016-Sep-19 13:33N 43°24' E 004°56'0 0.0
2016-Sep-19 12:33N 43°24' E 004°56'0 0.0
2016-Sep-19 11:33N 43°24' E 004°56'0 0.0
2016-Sep-19 09:33N 43°24' E 004°56'0 0.0
2016-Sep-19 07:33N 43°24' E 004°56'0 0.0
2016-Sep-19 06:33N 43°24' E 004°56'0 0.0
2016-Sep-19 03:33N 43°24' E 004°56'0 0.0
2016-Sep-19 02:33N 43°24' E 004°56'0 0.0
2016-Sep-19 00:33N 43°24' E 004°56'0 0.0
2016-Sep-18 19:33N 43°24' E 004°56'0 0.0
2016-Sep-18 15:33N 43°24' E 004°56'0 0.0
2016-Sep-18 14:33N 43°24' E 004°56'0 0.0
2016-Sep-18 10:33N 43°24' E 004°56'0 0.0
2016-Sep-18 09:33N 43°24' E 004°56'325 9.7
2016-Sep-17 00:05N 38°45' E 008°37'17211.6
2016-Sep-16 09:10N 37°37' E 011°58'1911.9
2016-Sep-16 07:33N 37°29' E 012°20'5412.5
2016-Sep-16 03:14N 37°06' E 013°22'912.7
2016-Sep-16 02:34N 37°02' E 013°32'2412.2
2016-Sep-16 00:33N 36°52' E 013°59'2412.2
2016-Sep-15 22:33N 36°42' E 014°27'1312.4
2016-Sep-15 21:33N 36°36' E 014°41'1212.2
2016-Sep-15 20:33N 36°33' E 014°56'8911.2
2016-Sep-15 12:33N 37°40' E 016°10'  
Track history (hours):
 
Tides and Currents Weather Stations Pressure Air Temp Water Temp Dewpoint Dewpoint Depression Visibility Wind Speed Wind Dir Waves Ship Positions

Favola

Last reported at 2016-Sep-25 07:34 UTC. Time now 2016-Sep-25 14:04 UTC.
Position N 39°14' W 009°55'.

Length 180 m; draft 7.2 m.

Type: Ship (hazmat cat D). MMSI: 247069800.

Date/timePositionNaut miles runAvg speedWind from/ knotsBaromVisibWave heightAir tempDewpointWater temp
2016-Sep-25 07:34N 39°14' W 009°55'3411.5
2016-Sep-25 04:34N 38°40' W 009°55'4611.4
2016-Sep-25 00:30N 37°55' W 009°41'2311.6
2016-Sep-24 22:29N 37°32' W 009°34'1512.1
2016-Sep-24 21:13N 37°17' W 009°31'1911.6
2016-Sep-24 19:33N 36°58' W 009°25'3311.0
2016-Sep-24 16:33N 36°36' W 008°55'27511.0
2016-Sep-23 15:33N 36°18' W 003°14'2211.2
2016-Sep-23 13:33N 36°22' W 002°46'36 9.0
2016-Sep-23 09:33N 36°32' W 002°03'3310.9
2016-Sep-23 06:32N 36°54' W 001°32'2110.2
2016-Sep-23 04:26N 37°08' W 001°12'9 9.6
2016-Sep-23 03:31N 37°13' W 001°04'9 9.6
2016-Sep-23 02:33N 37°19' W 000°55'10 9.9
2016-Sep-23 01:33N 37°26' W 000°45'10 9.6
2016-Sep-23 00:31N 37°33' W 000°36'9 9.5
2016-Sep-22 23:33N 37°40' W 000°29'187 9.8
2016-Sep-22 04:33N 40°12' E 001°50'1010.2
2016-Sep-22 03:33N 40°21' E 001°58'3110.5
2016-Sep-22 00:34N 40°46' E 002°22'1010.1
2016-Sep-21 23:33N 40°54' E 002°30'1010.1
2016-Sep-21 22:33N 41°01' E 002°40'  
2016-Sep-19 13:33N 43°24' E 004°56'0 0.0
2016-Sep-19 12:33N 43°24' E 004°56'0 0.0
2016-Sep-19 11:33N 43°24' E 004°56'0 0.0
2016-Sep-19 09:33N 43°24' E 004°56'0 0.0
2016-Sep-19 07:33N 43°24' E 004°56'0 0.0
2016-Sep-19 06:33N 43°24' E 004°56'0 0.0
2016-Sep-19 03:33N 43°24' E 004°56'0 0.0
2016-Sep-19 02:33N 43°24' E 004°56'0 0.0
2016-Sep-19 00:33N 43°24' E 004°56'0 0.0
2016-Sep-18 19:33N 43°24' E 004°56'0 0.0
2016-Sep-18 15:33N 43°24' E 004°56'0 0.0
2016-Sep-18 14:33N 43°24' E 004°56'0 0.0
2016-Sep-18 10:33N 43°24' E 004°56'0 0.0
2016-Sep-18 09:33N 43°24' E 004°56'325 9.7
2016-Sep-17 00:05N 38°45' E 008°37'17211.6
2016-Sep-16 09:10N 37°37' E 011°58'1911.9
2016-Sep-16 07:33N 37°29' E 012°20'5412.5
2016-Sep-16 03:14N 37°06' E 013°22'912.7
2016-Sep-16 02:34N 37°02' E 013°32'2412.2
2016-Sep-16 00:33N 36°52' E 013°59'2412.2
2016-Sep-15 22:33N 36°42' E 014°27'1312.4
2016-Sep-15 21:33N 36°36' E 014°41'1212.2
2016-Sep-15 20:33N 36°33' E 014°56'8911.2
2016-Sep-15 12:33N 37°40' E 016°10'  

Dump ship's entire track history